Princeton Airport, British Columbia

1:15 PM PDT on May 28, 2017 (GMT -0700)
Princeton Airport | | Change Station

Elev 2297 ft 49.47 °N, 120.52 °W | Updated 15 minutes ago

Partly Cloudy
Partly Cloudy
82 °F
Feels Like 82 °F
N
5
Wind Variable Wind from Variable

Today
High -- | Low -- °F
--% Chance of Precip.
Yesterday
High -- | Low -- °F
Precip. -- in
Pressure 30.06 in
Visibility 25.0 miles
Clouds Few 4500 ft
Dew Point 41 °F
Humidity 23%
Rainfall 0.00 in
Snow Depth Not available.
5:03 AM 8:56 PM
Waxing Crescent, 13% visible
METAR CYDC 282000Z VRB04KT 25SM FEW045 28/05 A3009 RMK CU1 SLP177 DENSITY ALT 4100FT
Pressure 30.06 in
Visibility 25.0 miles
Clouds Few 4500 ft
Dew Point 41 °F
Humidity 23%
Rainfall 0.00 in
Snow Depth Not available.
5:03 AM 8:56 PM
Waxing Crescent, 13% visible
METAR CYDC 282000Z VRB04KT 25SM FEW045 28/05 A3009 RMK CU1 SLP177 DENSITY ALT 4100FT

Get Severe Weather Alerts

Thanks for signing up!

Be on the lookout for a verification email in your inbox.

You'll start receiving the daily forecast at 6 AM.

×

10-Day Weather Forecast

Almanac

Astronomy

May. 28, 2017 Rise Set
Actual Time
Civil Twilight
Nautical Twilight
Astronomical Twilight
Moon
Length of Visible Light
Length of Day
Tomorrow will be .
, % of the Moon is Illuminated

Today's Extremes

Country Highs Country Lows

Community

WunderPhotos

Category 6

Welcome to Category 6. This is the collective home for Weather Underground's featured writeups by Dr. Jeff Masters (right), Bob Henson (left), Chris Burt, and other regular contributors.

Nearby

Air Quality

  Air Quality AQ Index Pollutant
Not available.

Snow Depth

Station Depth Elevation

Earthquake Activity

City Distance Mag. Time & Date
Minimum magnitude displayed is 2.5.

Coastal Water Temperatures

Place Temperature

Stations

Nearby Weather Stations

Station Location Temp. Windchill Dew Point Humidity Wind Precip. Elev Updated Type
                   

Watches & Warnings

There are currently no watches in effect.